sensor_id;sensor_type;location;lat;lon;timestamp;P1;durP1;ratioP1;P2;durP2;ratioP2
46597;SDS011;32318;48.858;8.252;2023-05-10T00:06:15;3.70;;;0.70;;
46597;SDS011;32318;48.858;8.252;2023-05-10T00:14:15;4.88;;;0.50;;
46597;SDS011;32318;48.858;8.252;2023-05-10T00:22:16;7.13;;;0.68;;
46597;SDS011;32318;48.858;8.252;2023-05-10T00:30:16;2.38;;;0.60;;
46597;SDS011;32318;48.858;8.252;2023-05-10T00:38:17;1.17;;;0.65;;
46597;SDS011;32318;48.858;8.252;2023-05-10T00:46:17;0.70;;;0.50;;
46597;SDS011;32318;48.858;8.252;2023-05-10T00:54:18;2.20;;;0.70;;
46597;SDS011;32318;48.858;8.252;2023-05-10T01:02:18;3.70;;;0.60;;
46597;SDS011;32318;48.858;8.252;2023-05-10T01:10:18;1.10;;;0.60;;
46597;SDS011;32318;48.858;8.252;2023-05-10T01:18:19;1.43;;;0.83;;
46597;SDS011;32318;48.858;8.252;2023-05-10T01:26:28;3.45;;;0.70;;
46597;SDS011;32318;48.858;8.252;2023-05-10T01:43:21;2.43;;;1.07;;
46597;SDS011;32318;48.858;8.252;2023-05-10T01:51:27;5.10;;;1.20;;
46597;SDS011;32318;48.858;8.252;2023-05-10T01:59:33;3.13;;;1.00;;
46597;SDS011;32318;48.858;8.252;2023-05-10T02:07:41;4.03;;;1.10;;
46597;SDS011;32318;48.858;8.252;2023-05-10T02:15:42;6.72;;;1.20;;
46597;SDS011;32318;48.858;8.252;2023-05-10T02:23:43;8.15;;;1.65;;
46597;SDS011;32318;48.858;8.252;2023-05-10T02:31:45;1.48;;;1.17;;
46597;SDS011;32318;48.858;8.252;2023-05-10T02:39:46;3.08;;;1.45;;
46597;SDS011;32318;48.858;8.252;2023-05-10T02:47:49;1.58;;;1.00;;
46597;SDS011;32318;48.858;8.252;2023-05-10T02:55:50;2.10;;;0.93;;
46597;SDS011;32318;48.858;8.252;2023-05-10T03:03:52;2.53;;;0.90;;
46597;SDS011;32318;48.858;8.252;2023-05-10T03:20:08;1.33;;;1.00;;
46597;SDS011;32318;48.858;8.252;2023-05-10T03:28:11;4.53;;;1.13;;
46597;SDS011;32318;48.858;8.252;2023-05-10T03:36:12;1.45;;;1.02;;
46597;SDS011;32318;48.858;8.252;2023-05-10T03:44:12;1.88;;;1.05;;
46597;SDS011;32318;48.858;8.252;2023-05-10T03:52:12;1.92;;;1.20;;
46597;SDS011;32318;48.858;8.252;2023-05-10T04:00:14;5.03;;;1.13;;
46597;SDS011;32318;48.858;8.252;2023-05-10T04:08:14;2.70;;;1.20;;
46597;SDS011;32318;48.858;8.252;2023-05-10T04:16:16;6.07;;;1.35;;
46597;SDS011;32318;48.858;8.252;2023-05-10T04:24:16;3.20;;;1.33;;
46597;SDS011;32318;48.858;8.252;2023-05-10T04:32:16;2.70;;;1.23;;
46597;SDS011;32318;48.858;8.252;2023-05-10T04:40:17;3.97;;;1.23;;
46597;SDS011;32318;48.858;8.252;2023-05-10T04:48:17;3.92;;;1.58;;
46597;SDS011;32318;48.858;8.252;2023-05-10T04:56:17;3.60;;;1.58;;
46597;SDS011;32318;48.858;8.252;2023-05-10T05:04:18;4.97;;;1.55;;
46597;SDS011;32318;48.858;8.252;2023-05-10T05:12:18;3.78;;;1.40;;
46597;SDS011;32318;48.858;8.252;2023-05-10T05:20:18;7.50;;;1.45;;
46597;SDS011;32318;48.858;8.252;2023-05-10T05:28:19;4.68;;;1.60;;
46597;SDS011;32318;48.858;8.252;2023-05-10T05:36:20;6.50;;;1.73;;
46597;SDS011;32318;48.858;8.252;2023-05-10T05:44:21;2.90;;;1.75;;
46597;SDS011;32318;48.858;8.252;2023-05-10T05:52:21;4.75;;;1.52;;
46597;SDS011;32318;48.858;8.252;2023-05-10T06:00:21;3.65;;;1.98;;
46597;SDS011;32318;48.858;8.252;2023-05-10T06:08:22;4.47;;;1.60;;
46597;SDS011;32318;48.858;8.252;2023-05-10T06:16:22;6.40;;;1.70;;
46597;SDS011;32318;48.858;8.252;2023-05-10T06:24:23;5.90;;;1.13;;
46597;SDS011;32318;48.858;8.252;2023-05-10T06:32:23;7.50;;;1.33;;
46597;SDS011;32318;48.858;8.252;2023-05-10T06:40:23;9.73;;;1.30;;
46597;SDS011;32318;48.858;8.252;2023-05-10T06:48:24;3.60;;;1.20;;
46597;SDS011;32318;48.858;8.252;2023-05-10T06:56:24;5.13;;;1.02;;
46597;SDS011;32318;48.858;8.252;2023-05-10T07:04:24;1.63;;;0.90;;
46597;SDS011;32318;48.858;8.252;2023-05-10T07:12:24;3.28;;;0.80;;
46597;SDS011;32318;48.858;8.252;2023-05-10T07:20:25;2.70;;;0.50;;
46597;SDS011;32318;48.858;8.252;2023-05-10T07:28:25;1.67;;;0.57;;
46597;SDS011;32318;48.858;8.252;2023-05-10T07:36:25;3.90;;;0.55;;
46597;SDS011;32318;48.858;8.252;2023-05-10T07:44:26;0.90;;;0.60;;
46597;SDS011;32318;48.858;8.252;2023-05-10T07:52:26;0.93;;;0.40;;
46597;SDS011;32318;48.858;8.252;2023-05-10T08:00:27;1.48;;;0.50;;
46597;SDS011;32318;48.858;8.252;2023-05-10T08:08:27;2.95;;;0.75;;
46597;SDS011;32318;48.858;8.252;2023-05-10T08:16:27;1.70;;;1.00;;
46597;SDS011;32318;48.858;8.252;2023-05-10T08:24:28;1.70;;;0.60;;
46597;SDS011;32318;48.858;8.252;2023-05-10T08:32:28;2.05;;;0.57;;
46597;SDS011;32318;48.858;8.252;2023-05-10T08:40:29;0.93;;;0.40;;
46597;SDS011;32318;48.858;8.252;2023-05-10T08:48:29;2.08;;;0.63;;
46597;SDS011;32318;48.858;8.252;2023-05-10T08:56:30;3.15;;;0.57;;
46597;SDS011;32318;48.858;8.252;2023-05-10T09:04:31;2.88;;;0.90;;
46597;SDS011;32318;48.858;8.252;2023-05-10T09:12:31;2.80;;;0.90;;
46597;SDS011;32318;48.858;8.252;2023-05-10T09:20:32;5.90;;;1.00;;
46597;SDS011;32318;48.858;8.252;2023-05-10T09:28:33;6.63;;;1.00;;
46597;SDS011;32318;48.858;8.252;2023-05-10T09:36:54;1.80;;;0.73;;
46597;SDS011;32318;48.858;8.252;2023-05-10T09:44:59;3.55;;;1.13;;
46597;SDS011;32318;48.858;8.252;2023-05-10T09:53:04;4.55;;;1.73;;
46597;SDS011;32318;48.858;8.252;2023-05-10T10:01:04;5.75;;;1.70;;
46597;SDS011;32318;48.858;8.252;2023-05-10T10:09:10;8.55;;;1.90;;
46597;SDS011;32318;48.858;8.252;2023-05-10T10:17:10;4.43;;;2.30;;
46597;SDS011;32318;48.858;8.252;2023-05-10T10:25:12;2.85;;;1.42;;
46597;SDS011;32318;48.858;8.252;2023-05-10T10:33:33;3.80;;;1.58;;
46597;SDS011;32318;48.858;8.252;2023-05-10T10:41:50;2.70;;;1.30;;
46597;SDS011;32318;48.858;8.252;2023-05-10T10:50:02;6.47;;;0.90;;
46597;SDS011;32318;48.858;8.252;2023-05-10T10:58:03;3.90;;;1.02;;
46597;SDS011;32318;48.858;8.252;2023-05-10T11:06:05;4.72;;;0.63;;
46597;SDS011;32318;48.858;8.252;2023-05-10T11:14:06;8.13;;;0.98;;
46597;SDS011;32318;48.858;8.252;2023-05-10T11:22:13;2.78;;;0.57;;
46597;SDS011;32318;48.858;8.252;2023-05-10T11:30:14;2.83;;;0.50;;
46597;SDS011;32318;48.858;8.252;2023-05-10T11:38:14;3.13;;;0.70;;
46597;SDS011;32318;48.858;8.252;2023-05-10T11:46:15;3.08;;;0.73;;
46597;SDS011;32318;48.858;8.252;2023-05-10T11:54:17;5.00;;;0.60;;
46597;SDS011;32318;48.858;8.252;2023-05-10T12:02:17;4.38;;;0.75;;
46597;SDS011;32318;48.858;8.252;2023-05-10T12:10:26;3.90;;;0.60;;
46597;SDS011;32318;48.858;8.252;2023-05-10T12:18:27;1.95;;;0.55;;
46597;SDS011;32318;48.858;8.252;2023-05-10T12:26:27;1.67;;;0.52;;
46597;SDS011;32318;48.858;8.252;2023-05-10T12:34:32;3.92;;;0.40;;
46597;SDS011;32318;48.858;8.252;2023-05-10T12:50:35;2.03;;;0.60;;
46597;SDS011;32318;48.858;8.252;2023-05-10T12:58:35;0.77;;;0.40;;
46597;SDS011;32318;48.858;8.252;2023-05-10T13:06:36;3.03;;;0.70;;
46597;SDS011;32318;48.858;8.252;2023-05-10T13:14:36;1.98;;;0.45;;
46597;SDS011;32318;48.858;8.252;2023-05-10T13:22:36;3.10;;;0.60;;
46597;SDS011;32318;48.858;8.252;2023-05-10T13:30:37;5.03;;;0.57;;
46597;SDS011;32318;48.858;8.252;2023-05-10T13:38:37;3.00;;;0.57;;
46597;SDS011;32318;48.858;8.252;2023-05-10T13:46:37;1.17;;;0.50;;
46597;SDS011;32318;48.858;8.252;2023-05-10T13:54:38;5.75;;;0.70;;
46597;SDS011;32318;48.858;8.252;2023-05-10T14:02:39;1.60;;;0.50;;
46597;SDS011;32318;48.858;8.252;2023-05-10T14:10:39;1.88;;;0.47;;
46597;SDS011;32318;48.858;8.252;2023-05-10T14:18:39;1.95;;;0.50;;
46597;SDS011;32318;48.858;8.252;2023-05-10T14:26:39;3.95;;;0.50;;
46597;SDS011;32318;48.858;8.252;2023-05-10T14:34:40;2.20;;;0.35;;
46597;SDS011;32318;48.858;8.252;2023-05-10T14:42:41;1.98;;;0.40;;
46597;SDS011;32318;48.858;8.252;2023-05-10T14:50:42;4.93;;;0.57;;
46597;SDS011;32318;48.858;8.252;2023-05-10T14:58:43;6.03;;;0.47;;
46597;SDS011;32318;48.858;8.252;2023-05-10T15:06:43;1.05;;;0.50;;
46597;SDS011;32318;48.858;8.252;2023-05-10T15:14:43;3.83;;;0.40;;
46597;SDS011;32318;48.858;8.252;2023-05-10T15:22:44;7.97;;;0.65;;
46597;SDS011;32318;48.858;8.252;2023-05-10T15:30:44;0.55;;;0.30;;
46597;SDS011;32318;48.858;8.252;2023-05-10T15:38:44;4.78;;;0.40;;
46597;SDS011;32318;48.858;8.252;2023-05-10T15:46:45;1.40;;;0.50;;
46597;SDS011;32318;48.858;8.252;2023-05-10T15:54:45;0.70;;;0.60;;
46597;SDS011;32318;48.858;8.252;2023-05-10T16:02:46;1.43;;;0.60;;
46597;SDS011;32318;48.858;8.252;2023-05-10T16:10:46;3.40;;;0.20;;
46597;SDS011;32318;48.858;8.252;2023-05-10T16:18:46;1.58;;;0.30;;
46597;SDS011;32318;48.858;8.252;2023-05-10T16:26:47;1.88;;;0.45;;
46597;SDS011;32318;48.858;8.252;2023-05-10T16:34:47;0.77;;;0.30;;
46597;SDS011;32318;48.858;8.252;2023-05-10T16:42:49;0.63;;;0.25;;
46597;SDS011;32318;48.858;8.252;2023-05-10T16:50:49;0.60;;;0.30;;
46597;SDS011;32318;48.858;8.252;2023-05-10T16:58:49;0.75;;;0.30;;
46597;SDS011;32318;48.858;8.252;2023-05-10T17:06:50;0.90;;;0.50;;
46597;SDS011;32318;48.858;8.252;2023-05-10T17:14:50;0.80;;;0.30;;
46597;SDS011;32318;48.858;8.252;2023-05-10T17:22:50;4.38;;;0.43;;
46597;SDS011;32318;48.858;8.252;2023-05-10T17:30:54;1.60;;;0.40;;
46597;SDS011;32318;48.858;8.252;2023-05-10T17:38:56;0.60;;;0.23;;
46597;SDS011;32318;48.858;8.252;2023-05-10T17:46:57;1.85;;;0.40;;
46597;SDS011;32318;48.858;8.252;2023-05-10T17:54:58;0.95;;;0.40;;
46597;SDS011;32318;48.858;8.252;2023-05-10T18:02:58;1.17;;;0.28;;
46597;SDS011;32318;48.858;8.252;2023-05-10T18:10:58;1.23;;;0.43;;
46597;SDS011;32318;48.858;8.252;2023-05-10T18:18:59;2.40;;;0.75;;
46597;SDS011;32318;48.858;8.252;2023-05-10T18:26:59;0.85;;;0.50;;
46597;SDS011;32318;48.858;8.252;2023-05-10T18:35:00;3.10;;;0.60;;
46597;SDS011;32318;48.858;8.252;2023-05-10T18:43:01;1.48;;;0.70;;
46597;SDS011;32318;48.858;8.252;2023-05-10T18:51:02;2.92;;;0.90;;
46597;SDS011;32318;48.858;8.252;2023-05-10T18:59:02;5.25;;;0.65;;
46597;SDS011;32318;48.858;8.252;2023-05-10T19:07:02;2.60;;;0.40;;
46597;SDS011;32318;48.858;8.252;2023-05-10T19:15:03;5.93;;;1.60;;
46597;SDS011;32318;48.858;8.252;2023-05-10T19:23:03;3.25;;;1.30;;
46597;SDS011;32318;48.858;8.252;2023-05-10T19:31:04;2.33;;;1.20;;
46597;SDS011;32318;48.858;8.252;2023-05-10T19:39:04;1.80;;;0.90;;
46597;SDS011;32318;48.858;8.252;2023-05-10T19:47:04;3.55;;;0.85;;
46597;SDS011;32318;48.858;8.252;2023-05-10T19:55:05;2.05;;;0.88;;
46597;SDS011;32318;48.858;8.252;2023-05-10T20:03:06;2.17;;;0.82;;
46597;SDS011;32318;48.858;8.252;2023-05-10T20:11:06;3.75;;;0.70;;
46597;SDS011;32318;48.858;8.252;2023-05-10T20:19:06;7.10;;;0.70;;
46597;SDS011;32318;48.858;8.252;2023-05-10T20:27:06;2.58;;;0.80;;
46597;SDS011;32318;48.858;8.252;2023-05-10T20:35:07;1.83;;;0.85;;
46597;SDS011;32318;48.858;8.252;2023-05-10T20:43:08;3.42;;;1.00;;
46597;SDS011;32318;48.858;8.252;2023-05-10T20:51:08;1.38;;;0.70;;
46597;SDS011;32318;48.858;8.252;2023-05-10T20:59:09;2.40;;;0.75;;
46597;SDS011;32318;48.858;8.252;2023-05-10T21:07:09;5.35;;;0.60;;
46597;SDS011;32318;48.858;8.252;2023-05-10T21:15:10;1.77;;;0.50;;
46597;SDS011;32318;48.858;8.252;2023-05-10T21:23:10;3.85;;;0.77;;
46597;SDS011;32318;48.858;8.252;2023-05-10T21:31:10;2.05;;;0.93;;
46597;SDS011;32318;48.858;8.252;2023-05-10T21:39:11;6.72;;;1.20;;
46597;SDS011;32318;48.858;8.252;2023-05-10T21:47:11;4.30;;;0.90;;
46597;SDS011;32318;48.858;8.252;2023-05-10T21:55:11;3.90;;;1.10;;
46597;SDS011;32318;48.858;8.252;2023-05-10T22:03:12;3.33;;;1.00;;
46597;SDS011;32318;48.858;8.252;2023-05-10T22:11:12;6.40;;;1.03;;
46597;SDS011;32318;48.858;8.252;2023-05-10T22:19:12;2.10;;;1.20;;
46597;SDS011;32318;48.858;8.252;2023-05-10T22:27:13;2.83;;;0.70;;
46597;SDS011;32318;48.858;8.252;2023-05-10T22:35:14;1.98;;;0.80;;
46597;SDS011;32318;48.858;8.252;2023-05-10T22:43:15;2.93;;;0.80;;
46597;SDS011;32318;48.858;8.252;2023-05-10T22:51:15;2.42;;;0.90;;
46597;SDS011;32318;48.858;8.252;2023-05-10T22:59:15;1.02;;;0.60;;
46597;SDS011;32318;48.858;8.252;2023-05-10T23:07:16;4.05;;;0.60;;
46597;SDS011;32318;48.858;8.252;2023-05-10T23:15:16;5.88;;;0.80;;
46597;SDS011;32318;48.858;8.252;2023-05-10T23:23:17;1.27;;;0.47;;
46597;SDS011;32318;48.858;8.252;2023-05-10T23:31:17;3.28;;;0.60;;
46597;SDS011;32318;48.858;8.252;2023-05-10T23:39:17;1.63;;;0.73;;
46597;SDS011;32318;48.858;8.252;2023-05-10T23:47:17;3.75;;;0.55;;
46597;SDS011;32318;48.858;8.252;2023-05-10T23:55:18;1.13;;;0.63;;
